Time;durP1;ratioP1;P1;durP2;ratioP2;P2;SDS_P1;SDS_P2;PMS_P1;PMS_P2;Temp;Humidity;BMP_temperature;BMP_pressure;BME280_temperature;BME280_humidity;BME280_pressure;Samples;Min_cycle;Max_cycle;Signal;HPM_P1;HPM_P2
2021/12/26 00:02:16;;;;;;;130.48;77.45;;;9.50;1.00;;;;;;5077941;28;20049;-78
2021/12/26 00:04:43;;;;;;;128.07;73.05;;;9.40;99.90;;;;;;5060402;28;20067;-78
2021/12/26 00:07:11;;;;;;;118.30;67.50;;;9.30;1.00;;;;;;5076234;28;20048;-77
2021/12/26 00:09:40;;;;;;;159.70;95.20;;;9.30;99.90;;;;;;5093832;28;20040;-77
2021/12/26 00:12:09;;;;;;;151.45;89.13;;;9.30;99.90;;;;;;5076608;28;20052;-78
2021/12/26 00:14:37;;;;;;;162.70;97.13;;;9.30;1.00;;;;;;5056206;28;20077;-77
2021/12/26 00:17:05;;;;;;;125.28;76.78;;;9.30;1.00;;;;;;5073698;28;20045;-77
2021/12/26 00:19:32;;;;;;;103.13;61.45;;;9.20;1.00;;;;;;5055407;28;20047;-75
2021/12/26 00:22:00;;;;;;;124.85;73.25;;;9.30;99.90;;;;;;5055905;28;20135;-77
2021/12/26 00:24:27;;;;;;;169.48;95.88;;;9.30;1.00;;;;;;5055593;28;20399;-76
2021/12/26 00:26:56;;;;;;;127.75;76.28;;;9.40;99.90;;;;;;5067365;28;20045;-77
2021/12/26 00:29:24;;;;;;;116.60;72.55;;;9.40;1.00;;;;;;5081661;28;20127;-77
2021/12/26 00:31:52;;;;;;;134.05;76.57;;;9.40;1.00;;;;;;5055763;28;20506;-77
2021/12/26 00:34:19;;;;;;;135.98;81.13;;;9.40;99.90;;;;;;5073595;28;20075;-78
2021/12/26 00:36:46;;;;;;;132.77;78.97;;;9.40;1.00;;;;;;5055274;28;20131;-78
2021/12/26 00:39:15;;;;;;;124.00;74.05;;;9.50;99.90;;;;;;5073117;28;20041;-77
2021/12/26 00:41:45;;;;;;;129.13;76.05;;;9.40;1.00;;;;;;5055781;28;20076;-77
2021/12/26 00:44:14;;;;;;;120.88;71.60;;;9.40;99.90;;;;;;5056561;28;20123;-77
2021/12/26 00:46:41;;;;;;;117.70;70.47;;;9.40;1.00;;;;;;5059040;28;20504;-76
2021/12/26 00:49:09;;;;;;;130.30;80.45;;;9.50;1.00;;;;;;5058995;28;20068;-77
2021/12/26 00:51:37;;;;;;;108.45;68.22;;;9.40;99.90;;;;;;5059415;28;20471;-78
2021/12/26 00:54:05;;;;;;;102.50;61.92;;;9.40;99.90;;;;;;5059198;28;20059;-77
2021/12/26 00:56:33;;;;;;;106.05;63.95;;;9.30;99.90;;;;;;5059830;28;20048;-78
2021/12/26 00:59:00;;;;;;;117.50;70.00;;;9.40;1.00;;;;;;5059708;28;20045;-76
2021/12/26 01:01:29;;;;;;;151.95;89.70;;;9.30;99.90;;;;;;5059171;28;20139;-77
2021/12/26 01:03:57;;;;;;;175.65;105.28;;;9.20;1.00;;;;;;5058741;28;20064;-77
2021/12/26 01:06:26;;;;;;;155.45;95.85;;;9.30;1.00;;;;;;5059176;28;20076;-77
2021/12/26 01:08:54;;;;;;;171.43;99.20;;;9.30;1.00;;;;;;5059132;28;20052;-77
2021/12/26 01:11:34;;;;;;;129.13;77.60;;;9.20;99.90;;;;;;5059681;28;20395;-78
2021/12/26 01:14:05;;;;;;;107.07;67.15;;;9.20;99.90;;;;;;5058636;28;20048;-76
2021/12/26 01:17:02;;;;;;;84.78;53.13;;;9.20;1.00;;;;;;5077233;28;20090;-76
2021/12/26 01:19:38;;;;;;;84.65;52.22;;;9.20;99.90;;;;;;5077007;28;20088;-78
2021/12/26 01:22:06;;;;;;;81.85;52.08;;;9.20;1.00;;;;;;5059665;28;20127;-77
2021/12/26 01:24:33;;;;;;;85.35;52.50;;;9.30;1.00;;;;;;5058801;28;20372;-78
2021/12/26 01:27:02;;;;;;;81.85;50.00;;;9.30;1.00;;;;;;5059071;28;20040;-77
2021/12/26 01:29:36;;;;;;;91.70;55.75;;;9.30;1.00;;;;;;5059244;28;20492;-79
2021/12/26 01:32:07;;;;;;;110.68;65.57;;;9.30;1.00;;;;;;5059231;28;20070;-77
2021/12/26 01:35:06;;;;;;;99.82;60.17;;;9.30;99.90;;;;;;5079252;28;20040;-77
2021/12/26 01:37:43;;;;;;;117.32;70.40;;;9.30;99.90;;;;;;5073435;28;20044;-77
2021/12/26 01:40:31;;;;;;;113.05;68.53;;;9.20;99.90;;;;;;5077970;28;20193;-78
2021/12/26 01:43:03;;;;;;;78.13;48.42;;;9.20;99.90;;;;;;5071698;28;20060;-77
2021/12/26 01:45:45;;;;;;;69.78;40.17;;;9.20;1.00;;;;;;5075266;28;20492;-77
2021/12/26 01:48:15;;;;;;;62.55;38.35;;;9.20;99.90;;;;;;5076593;28;20063;-77
2021/12/26 01:50:48;;;;;;;60.38;36.58;;;9.30;1.00;;;;;;5059414;28;20040;-78
2021/12/26 01:53:19;;;;;;;65.72;40.33;;;9.30;1.00;;;;;;5065792;28;20048;-78
2021/12/26 01:55:47;;;;;;;79.43;49.20;;;9.30;99.90;;;;;;5064627;28;20045;-78
2021/12/26 01:58:19;;;;;;;70.22;43.22;;;9.20;1.00;;;;;;5059206;28;20055;-78
2021/12/26 02:00:50;;;;;;;84.25;50.25;;;9.20;1.00;;;;;;5058856;28;20094;-78
2021/12/26 02:03:19;;;;;;;105.35;63.50;;;9.20;1.00;;;;;;5057948;28;20054;-78
2021/12/26 02:05:47;;;;;;;99.25;60.22;;;9.20;57.60;;;;;;5057706;28;20534;-78
2021/12/26 02:08:17;;;;;;;89.30;55.88;;;9.20;29.30;;;;;;5058726;28;20480;-76
2021/12/26 02:10:46;;;;;;;104.75;63.35;;;9.20;26.80;;;;;;5058473;28;20049;-78
2021/12/26 02:13:14;;;;;;;97.85;59.17;;;9.20;43.20;;;;;;5057927;28;20522;-77
2021/12/26 02:15:42;;;;;;;98.82;60.97;;;9.20;68.90;;;;;;5057278;28;20060;-77
2021/12/26 02:18:13;;;;;;;84.45;49.53;;;9.20;29.80;;;;;;5058701;28;20052;-77
2021/12/26 02:20:57;;;;;;;69.75;45.03;;;9.20;57.30;;;;;;5057527;28;20106;-77
2021/12/26 02:23:34;;;;;;;72.32;44.40;;;9.20;44.10;;;;;;5063207;28;20047;-76
2021/12/26 02:28:50;;;;;;;68.22;43.10;;;9.20;40.50;;;;;;5040634;28;20113;-78
2021/12/26 02:31:18;;;;;;;57.17;36.13;;;9.20;69.30;;;;;;5057857;28;20037;-78
2021/12/26 02:33:46;;;;;;;57.88;36.63;;;9.30;59.50;;;;;;5061664;28;20072;-76
2021/12/26 02:36:15;;;;;;;69.95;45.38;;;9.30;35.70;;;;;;5060777;28;20098;-77
2021/12/26 02:38:42;;;;;;;46.22;29.15;;;9.30;23.50;;;;;;5057466;28;20071;-77
2021/12/26 02:41:10;;;;;;;55.17;32.42;;;9.20;18.10;;;;;;5057166;28;20059;-79
2021/12/26 02:43:38;;;;;;;53.53;33.28;;;9.10;57.60;;;;;;5060470;28;20060;-77
2021/12/26 02:46:07;;;;;;;47.42;29.38;;;9.20;53.00;;;;;;5057138;28;20045;-79
2021/12/26 02:48:36;;;;;;;48.72;30.08;;;9.20;1.00;;;;;;5060401;28;20059;-78
2021/12/26 02:51:05;;;;;;;59.75;35.33;;;9.20;1.00;;;;;;5056929;28;20052;-77
2021/12/26 02:53:35;;;;;;;81.28;50.88;;;9.20;32.10;;;;;;5057740;28;20071;-75
2021/12/26 02:56:05;;;;;;;62.25;40.47;;;9.20;38.80;;;;;;5074288;28;20127;-77
2021/12/26 02:58:33;;;;;;;71.95;44.78;;;9.30;8.70;;;;;;5057019;28;20051;-77
2021/12/26 03:01:04;;;;;;;84.47;53.58;;;9.20;31.60;;;;;;5057350;28;20059;-78
2021/12/26 03:03:32;;;;;;;72.03;46.72;;;9.20;26.90;;;;;;5059650;28;20469;-77
2021/12/26 03:06:03;;;;;;;72.63;46.92;;;9.20;18.90;;;;;;5056798;28;20418;-77
2021/12/26 03:08:31;;;;;;;76.50;48.90;;;9.20;46.30;;;;;;5057261;28;20048;-78
2021/12/26 03:11:00;;;;;;;74.47;48.40;;;9.20;16.30;;;;;;5074618;28;20040;-78
2021/12/26 03:13:29;;;;;;;71.57;42.95;;;9.20;39.80;;;;;;5057542;28;20111;-76
2021/12/26 03:15:56;;;;;;;100.15;61.03;;;9.20;42.80;;;;;;5056738;28;20082;-78
2021/12/26 03:18:24;;;;;;;70.47;43.22;;;9.30;26.40;;;;;;5062370;28;20135;-78
2021/12/26 03:20:53;;;;;;;81.47;49.38;;;9.30;6.80;;;;;;5081750;28;20060;-76
2021/12/26 03:23:23;;;;;;;89.22;55.67;;;9.30;47.50;;;;;;5095433;28;20048;-76
2021/12/26 03:25:51;;;;;;;75.93;46.97;;;9.30;46.90;;;;;;5078632;28;20044;-77
2021/12/26 03:28:20;;;;;;;79.15;49.10;;;9.30;1.00;;;;;;5079874;28;20075;-76
2021/12/26 03:30:50;;;;;;;83.35;50.85;;;9.20;28.50;;;;;;5075754;28;20124;-78
2021/12/26 03:33:18;;;;;;;71.72;45.63;;;9.20;11.30;;;;;;5095776;28;20059;-78
2021/12/26 03:35:46;;;;;;;65.70;43.42;;;9.20;1.00;;;;;;5077728;28;20067;-76
2021/12/26 03:38:15;;;;;;;60.30;39.63;;;9.20;1.00;;;;;;5067944;28;20139;-77
2021/12/26 03:41:03;;;;;;;64.88;37.67;;;9.10;5.00;;;;;;5076013;28;20079;-77
2021/12/26 03:43:32;;;;;;;77.38;47.78;;;9.20;79.00;;;;;;5059070;28;20496;-77
2021/12/26 03:46:01;;;;;;;71.97;45.20;;;9.20;9.30;;;;;;5058169;28;20048;-77
2021/12/26 03:48:30;;;;;;;90.85;54.13;;;9.20;1.00;;;;;;5061774;28;20045;-78
2021/12/26 03:50:59;;;;;;;83.18;53.28;;;9.20;1.00;;;;;;5058594;28;20052;-77
2021/12/26 03:53:28;;;;;;;76.05;48.25;;;9.10;1.00;;;;;;5058192;28;20380;-77
2021/12/26 03:55:56;;;;;;;78.07;48.95;;;9.10;1.00;;;;;;5057361;28;20048;-78
2021/12/26 03:58:26;;;;;;;81.07;50.42;;;9.10;1.00;;;;;;5057452;28;20076;-77
2021/12/26 04:00:56;;;;;;;70.30;45.78;;;9.10;1.00;;;;;;5056897;28;20134;-77
2021/12/26 04:03:24;;;;;;;66.70;41.63;;;9.10;1.00;;;;;;5055849;28;20045;-77
2021/12/26 04:06:00;;;;;;;62.92;40.08;;;9.10;1.00;;;;;;5078026;22;20048;-76
2021/12/26 04:08:31;;;;;;;54.80;34.15;;;9.20;1.00;;;;;;5058771;28;20041;-78
2021/12/26 04:10:58;;;;;;;66.18;41.03;;;9.10;1.00;;;;;;5065261;28;20048;-77
2021/12/26 04:13:26;;;;;;;76.18;46.28;;;9.10;1.00;;;;;;5065795;28;20521;-76
2021/12/26 04:15:55;;;;;;;71.38;43.42;;;9.10;1.00;;;;;;5075723;28;20078;-75
2021/12/26 04:18:23;;;;;;;63.40;38.58;;;9.20;1.00;;;;;;5095427;28;20467;-76
2021/12/26 04:20:52;;;;;;;46.22;28.40;;;9.20;1.00;;;;;;5087289;28;20047;-77
2021/12/26 04:23:21;;;;;;;61.05;39.10;;;9.20;1.00;;;;;;5097003;28;20112;-76
2021/12/26 04:25:48;;;;;;;64.05;40.58;;;9.20;1.00;;;;;;5096107;28;20080;-77
2021/12/26 04:28:19;;;;;;;66.80;41.67;;;9.20;1.00;;;;;;5114143;28;20078;-77
2021/12/26 04:30:48;;;;;;;69.47;44.60;;;9.20;1.00;;;;;;5087296;28;20045;-77
2021/12/26 04:33:17;;;;;;;74.13;46.58;;;9.30;1.00;;;;;;5086969;28;20495;-77
2021/12/26 04:35:44;;;;;;;73.72;46.30;;;9.20;3.60;;;;;;5078210;28;20533;-77
2021/12/26 04:38:12;;;;;;;62.80;38.75;;;9.30;1.00;;;;;;5059702;28;20041;-77
2021/12/26 04:40:39;;;;;;;71.50;44.35;;;9.30;1.00;;;;;;5059928;28;20090;-77
2021/12/26 04:43:37;;;;;;;74.28;45.28;;;9.30;1.00;;;;;;5058934;28;20053;-76
2021/12/26 04:46:25;;;;;;;89.80;55.78;;;9.30;1.00;;;;;;5076070;28;20095;-76
2021/12/26 04:49:14;;;;;;;103.72;62.45;;;9.30;5.80;;;;;;5084249;28;20518;-76
2021/12/26 04:51:41;;;;;;;90.03;57.47;;;9.30;1.00;;;;;;5079124;28;20063;-77
2021/12/26 04:54:11;;;;;;;88.20;54.78;;;9.30;1.00;;;;;;5079800;28;20502;-76
2021/12/26 04:56:39;;;;;;;84.15;54.88;;;9.30;1.00;;;;;;5078203;28;20047;-76
2021/12/26 04:59:06;;;;;;;77.82;53.08;;;9.30;1.00;;;;;;5064495;28;20047;-76
2021/12/26 05:01:36;;;;;;;82.38;52.63;;;9.30;1.00;;;;;;5077542;28;20055;-75
2021/12/26 05:04:04;;;;;;;93.75;59.13;;;9.20;1.00;;;;;;5058848;28;20101;-77
2021/12/26 05:06:33;;;;;;;92.07;57.28;;;9.20;1.00;;;;;;5074587;28;20121;-76
2021/12/26 05:09:04;;;;;;;90.35;57.67;;;9.20;1.00;;;;;;5088723;28;20036;-76
2021/12/26 05:11:32;;;;;;;81.38;53.42;;;9.20;1.00;;;;;;5096920;28;20115;-76
2021/12/26 05:14:00;;;;;;;97.15;58.95;;;9.20;1.00;;;;;;5096831;28;20040;-77
2021/12/26 05:16:27;;;;;;;79.38;49.53;;;9.30;14.00;;;;;;5068257;28;20040;-76
2021/12/26 05:18:55;;;;;;;92.53;59.88;;;9.30;1.00;;;;;;5065618;28;20067;-77
2021/12/26 05:21:22;;;;;;;86.45;55.22;;;9.30;1.00;;;;;;5069989;28;20048;-77
2021/12/26 05:23:51;;;;;;;87.88;55.45;;;9.30;1.00;;;;;;5072253;28;20039;-77
2021/12/26 05:26:20;;;;;;;80.57;52.90;;;9.30;1.00;;;;;;5079028;28;20093;-77
2021/12/26 05:28:47;;;;;;;73.35;47.60;;;9.40;1.00;;;;;;5078650;28;20060;-77
2021/12/26 05:31:16;;;;;;;59.03;38.53;;;9.40;1.00;;;;;;5079009;28;20044;-77
2021/12/26 05:33:44;;;;;;;72.60;47.00;;;9.40;1.00;;;;;;5078294;28;20422;-76
2021/12/26 05:36:12;;;;;;;73.68;46.60;;;9.40;1.00;;;;;;5078505;28;20132;-76
2021/12/26 05:38:42;;;;;;;71.43;45.78;;;9.50;1.00;;;;;;5078364;28;20440;-76
2021/12/26 05:41:12;;;;;;;68.65;44.28;;;9.40;1.00;;;;;;5079705;28;20051;-77
2021/12/26 05:44:00;;;;;;;83.47;57.78;;;9.40;1.00;;;;;;5096632;28;20059;-76
2021/12/26 05:46:28;;;;;;;86.90;54.92;;;9.40;1.00;;;;;;5079012;28;20044;-78
2021/12/26 05:48:56;;;;;;;84.32;51.90;;;9.40;1.00;;;;;;5082769;28;20040;-78
2021/12/26 05:51:35;;;;;;;77.43;50.10;;;9.40;1.00;;;;;;5085030;28;20064;-77
2021/12/26 05:54:02;;;;;;;77.13;45.85;;;9.40;1.00;;;;;;5104544;28;20062;-77
2021/12/26 05:56:31;;;;;;;76.57;46.80;;;9.50;1.00;;;;;;5078636;28;20051;-76
2021/12/26 05:58:59;;;;;;;67.22;43.08;;;9.50;1.00;;;;;;5077745;28;20048;-77
2021/12/26 06:01:27;;;;;;;66.03;42.15;;;9.50;1.00;;;;;;5078104;28;20549;-76
2021/12/26 06:03:55;;;;;;;63.55;40.85;;;9.60;1.00;;;;;;5077536;28;20048;-76
2021/12/26 06:06:23;;;;;;;63.63;40.00;;;9.70;1.00;;;;;;5078108;28;20101;-76
2021/12/26 06:08:52;;;;;;;68.15;44.58;;;9.70;1.00;;;;;;5077226;28;20048;-76
2021/12/26 06:11:20;;;;;;;62.42;42.63;;;9.70;1.00;;;;;;5077823;28;20429;-77
2021/12/26 06:13:50;;;;;;;60.53;38.13;;;9.70;1.00;;;;;;5078434;28;20554;-77
2021/12/26 06:16:18;;;;;;;64.93;43.03;;;9.80;1.00;;;;;;5080526;28;20135;-77
2021/12/26 06:18:45;;;;;;;63.78;43.97;;;9.80;1.00;;;;;;5079172;28;20048;-77
2021/12/26 06:21:51;;;;;;;65.63;43.33;;;9.70;1.00;;;;;;5097687;28;20119;-77
2021/12/26 06:24:47;;;;;;;69.53;45.23;;;9.70;1.00;;;;;;5081750;28;20071;-77
2021/12/26 06:27:24;;;;;;;79.72;50.00;;;9.70;1.00;;;;;;5078062;28;20040;-77
2021/12/26 06:30:14;;;;;;;71.20;43.28;;;9.70;99.90;;;;;;5096248;28;20048;-76
2021/12/26 06:32:50;;;;;;;68.63;44.40;;;9.70;1.00;;;;;;5097240;28;20051;-77
2021/12/26 06:35:36;;;;;;;79.28;49.80;;;9.80;1.00;;;;;;5095375;28;20379;-77
2021/12/26 06:38:22;;;;;;;76.93;48.90;;;9.70;1.00;;;;;;5094708;28;20058;-76
2021/12/26 06:41:09;;;;;;;77.63;46.55;;;9.80;99.90;;;;;;5095451;28;20070;-76
2021/12/26 06:43:55;;;;;;;70.68;45.83;;;9.70;1.00;;;;;;5099240;28;20070;-76
2021/12/26 06:46:47;;;;;;;65.68;44.75;;;9.70;99.90;;;;;;5085079;28;20379;-76
2021/12/26 06:49:19;;;;;;;72.93;42.80;;;9.80;1.00;;;;;;5076560;28;20063;-76
2021/12/26 06:51:47;;;;;;;58.58;38.85;;;9.80;1.00;;;;;;5064589;28;20454;-77
2021/12/26 06:54:15;;;;;;;57.75;39.17;;;9.80;1.00;;;;;;5056340;28;20422;-76
2021/12/26 06:56:42;;;;;;;57.00;37.40;;;9.90;1.00;;;;;;5064890;28;20082;-76
2021/12/26 06:59:10;;;;;;;44.72;29.60;;;9.90;99.90;;;;;;5066080;28;20494;-76
2021/12/26 07:01:37;;;;;;;42.90;28.08;;;9.90;99.90;;;;;;5063578;28;20055;-77
2021/12/26 07:04:08;;;;;;;39.70;25.85;;;10.00;1.00;;;;;;5068145;28;20043;-76
2021/12/26 07:06:36;;;;;;;34.45;23.23;;;10.10;1.00;;;;;;5020922;28;1409003;-76
2021/12/26 07:09:09;;;;;;;32.85;21.65;;;10.10;1.00;;;;;;5090968;28;20064;-77
2021/12/26 07:11:37;;;;;;;29.92;22.13;;;10.10;99.90;;;;;;5078796;28;20036;-77
2021/12/26 07:14:07;;;;;;;29.80;19.90;;;10.10;1.00;;;;;;5062234;28;20045;-76
2021/12/26 07:16:34;;;;;;;28.20;20.92;;;10.10;32.50;;;;;;5075058;28;20040;-76
2021/12/26 07:19:02;;;;;;;29.40;20.77;;;10.10;1.00;;;;;;5057406;28;20047;-76
2021/12/26 07:21:40;;;;;;;29.40;20.40;;;10.20;1.00;;;;;;5056819;28;20043;-76
2021/12/26 07:24:09;;;;;;;33.30;23.45;;;10.20;1.00;;;;;;5055532;28;20055;-76
2021/12/26 07:26:37;;;;;;;34.08;23.75;;;10.20;1.00;;;;;;5057952;28;20139;-76
2021/12/26 07:29:13;;;;;;;33.28;23.38;;;10.20;1.00;;;;;;5081734;28;20040;-76
2021/12/26 07:31:43;;;;;;;41.55;28.77;;;10.20;1.00;;;;;;5041487;28;20064;-76
2021/12/26 07:34:13;;;;;;;40.75;28.95;;;10.30;1.00;;;;;;5076556;28;20472;-77
2021/12/26 07:36:42;;;;;;;39.45;30.02;;;10.30;99.90;;;;;;5076034;28;20052;-76
2021/12/26 07:39:18;;;;;;;42.00;31.05;;;10.40;1.00;;;;;;5058379;28;20521;-77
2021/12/26 07:41:46;;;;;;;44.70;32.67;;;10.30;99.90;;;;;;5073553;28;20043;-77
2021/12/26 07:44:32;;;;;;;43.33;32.40;;;10.30;1.00;;;;;;5078628;28;20054;-77
2021/12/26 07:47:19;;;;;;;47.47;33.25;;;10.50;99.90;;;;;;5077442;28;20079;-76
2021/12/26 07:49:48;;;;;;;49.65;34.28;;;10.50;1.00;;;;;;5058769;28;20363;-76
2021/12/26 07:52:40;;;;;;;43.53;32.92;;;10.60;99.90;;;;;;5075038;28;20056;-76
2021/12/26 07:55:26;;;;;;;43.10;31.77;;;10.70;1.00;;;;;;5073459;28;20051;-77
2021/12/26 07:58:13;;;;;;;42.70;30.38;;;10.90;1.00;;;;;;5084576;28;20064;-75
2021/12/26 08:00:59;;;;;;;43.72;31.02;;;10.90;1.00;;;;;;5084422;28;20051;-78
2021/12/26 08:03:44;;;;;;;45.92;31.88;;;11.00;99.90;;;;;;5061952;28;20097;-77
2021/12/26 08:06:46;;;;;;;57.53;37.28;;;11.10;1.00;;;;;;5077938;28;20562;-76
2021/12/26 08:09:16;;;;;;;56.63;38.60;;;11.10;1.00;;;;;;5063830;28;20139;-77
2021/12/26 08:11:44;;;;;;;61.78;44.80;;;11.10;99.90;;;;;;5059462;28;20097;-76
2021/12/26 08:14:11;;;;;;;64.15;44.72;;;11.20;1.00;;;;;;5061857;28;20074;-76
2021/12/26 08:16:39;;;;;;;58.88;42.22;;;11.10;1.00;;;;;;5086518;28;20309;-76
2021/12/26 08:19:09;;;;;;;61.78;44.97;;;11.00;1.00;;;;;;5073351;28;20044;-77
2021/12/26 08:21:37;;;;;;;75.22;52.65;;;11.10;1.00;;;;;;5080435;28;20447;-78
2021/12/26 08:24:05;;;;;;;82.43;56.00;;;11.00;1.00;;;;;;5056661;28;20148;-78
2021/12/26 08:26:34;;;;;;;104.80;71.65;;;11.00;25.10;;;;;;5073367;28;20052;-79
2021/12/26 08:29:02;;;;;;;79.40;57.22;;;10.90;1.00;;;;;;5085788;28;20040;-78
2021/12/26 08:31:30;;;;;;;103.47;71.63;;;10.90;1.00;;;;;;5057878;28;20033;-78
2021/12/26 08:33:58;;;;;;;98.57;67.97;;;10.80;99.90;;;;;;5057778;28;20076;-77
2021/12/26 08:36:25;;;;;;;108.95;80.40;;;10.90;90.20;;;;;;5068406;28;20063;-76
2021/12/26 08:38:53;;;;;;;92.25;65.47;;;10.90;99.90;;;;;;5089918;28;20046;-76
2021/12/26 08:41:22;;;;;;;136.65;93.82;;;10.90;99.90;;;;;;5059602;28;20092;-77
2021/12/26 08:43:53;;;;;;;106.20;75.35;;;11.10;99.90;;;;;;5077593;28;20143;-77
2021/12/26 08:46:21;;;;;;;80.93;55.25;;;11.10;1.00;;;;;;5075619;28;20131;-78
2021/12/26 08:48:48;;;;;;;78.07;55.10;;;11.00;1.00;;;;;;5056243;28;20467;-77
2021/12/26 08:51:16;;;;;;;83.40;61.08;;;11.00;78.00;;;;;;5079506;28;20025;-77
2021/12/26 08:53:43;;;;;;;79.97;58.65;;;10.90;1.00;;;;;;5072930;28;20064;-77
2021/12/26 08:56:11;;;;;;;83.00;61.17;;;10.90;99.90;;;;;;5055210;28;20144;-78
2021/12/26 08:58:38;;;;;;;85.57;60.25;;;11.00;99.90;;;;;;5058613;28;20032;-77
2021/12/26 09:01:07;;;;;;;87.60;60.75;;;11.00;1.00;;;;;;5089462;28;20048;-78
2021/12/26 09:03:37;;;;;;;81.95;58.63;;;11.20;1.00;;;;;;5068116;28;20098;-77
2021/12/26 09:06:05;;;;;;;77.15;54.58;;;11.30;1.00;;;;;;5039577;28;20144;-77
2021/12/26 09:08:33;;;;;;;66.93;47.33;;;11.50;99.90;;;;;;5038032;28;20120;-77
2021/12/26 09:11:00;;;;;;;66.88;48.97;;;11.60;1.00;;;;;;5020146;28;20141;-76
2021/12/26 09:13:28;;;;;;;76.68;52.03;;;11.70;99.90;;;;;;5020157;28;20509;-76
2021/12/26 09:15:55;;;;;;;79.90;52.40;;;11.80;99.90;;;;;;5037653;28;20121;-76
2021/12/26 09:18:24;;;;;;;70.20;48.65;;;11.70;1.00;;;;;;5039924;28;20037;-76
2021/12/26 09:20:52;;;;;;;68.22;46.90;;;11.80;99.90;;;;;;5048664;28;20128;-76
2021/12/26 09:23:19;;;;;;;73.72;48.20;;;11.80;99.90;;;;;;5057080;28;20123;-77
2021/12/26 09:25:47;;;;;;;71.47;46.28;;;11.80;1.00;;;;;;5038383;28;20132;-76
2021/12/26 09:28:14;;;;;;;69.70;46.40;;;11.70;99.90;;;;;;5038265;28;20059;-76
2021/12/26 09:30:42;;;;;;;60.65;43.28;;;11.70;1.00;;;;;;5038690;28;20127;-76
2021/12/26 09:33:10;;;;;;;57.65;43.45;;;11.70;49.30;;;;;;5059798;28;20056;-79
2021/12/26 09:35:39;;;;;;;59.20;43.30;;;11.70;99.90;;;;;;5041693;28;20124;-81
2021/12/26 09:38:07;;;;;;;64.05;44.47;;;11.70;1.00;;;;;;5045350;28;20510;-79
2021/12/26 09:40:34;;;;;;;69.68;49.40;;;11.70;99.90;;;;;;5063544;28;20041;-80
2021/12/26 09:43:02;;;;;;;72.63;50.97;;;11.70;99.90;;;;;;5065827;28;20099;-80
2021/12/26 09:45:29;;;;;;;78.78;55.50;;;11.70;1.00;;;;;;5049697;28;20052;-79
2021/12/26 09:47:57;;;;;;;83.05;57.38;;;11.60;1.00;;;;;;5069013;28;20037;-80
2021/12/26 09:50:25;;;;;;;107.20;70.60;;;11.60;1.00;;;;;;5052939;28;20037;-79
2021/12/26 09:52:57;;;;;;;100.75;69.38;;;11.50;1.00;;;;;;5067475;28;20037;-78
2021/12/26 09:55:29;;;;;;;96.93;69.30;;;11.60;1.00;;;;;;5043410;28;20052;-79
2021/12/26 09:57:57;;;;;;;103.53;70.95;;;11.60;1.00;;;;;;5062917;28;20059;-79
2021/12/26 10:00:27;;;;;;;95.32;63.40;;;11.60;99.90;;;;;;5061306;28;20056;-78
2021/12/26 10:03:18;;;;;;;91.82;62.90;;;11.50;1.00;;;;;;5059395;28;20045;-78
2021/12/26 10:06:05;;;;;;;92.40;61.70;;;11.30;99.90;;;;;;5081644;23;20063;-78
2021/12/26 10:08:49;;;;;;;81.93;56.80;;;11.40;1.00;;;;;;5087165;28;20067;-77
2021/12/26 10:11:18;;;;;;;82.28;54.67;;;11.30;1.00;;;;;;5097626;28;20042;-78
2021/12/26 10:13:48;;;;;;;72.35;50.92;;;11.30;1.00;;;;;;5118990;28;20040;-78
2021/12/26 10:16:18;;;;;;;67.43;47.50;;;11.10;1.00;;;;;;5121882;27;20130;-79
2021/12/26 10:18:49;;;;;;;60.75;42.03;;;11.10;1.00;;;;;;5139938;27;20076;-78
2021/12/26 10:21:35;;;;;;;58.03;40.47;;;11.00;1.00;;;;;;5139820;27;20043;-79
2021/12/26 10:24:20;;;;;;;56.83;39.88;;;11.00;1.00;;;;;;5136934;27;20122;-78
2021/12/26 10:26:53;;;;;;;63.95;43.28;;;10.80;99.90;;;;;;5119220;27;20059;-78
2021/12/26 10:29:32;;;;;;;59.78;42.60;;;10.80;1.00;;;;;;5138111;27;20042;-76
2021/12/26 10:32:03;;;;;;;59.42;42.25;;;10.80;99.90;;;;;;5138156;27;20043;-78
2021/12/26 10:34:35;;;;;;;55.40;38.95;;;10.80;99.90;;;;;;5116858;27;20471;-78
2021/12/26 10:37:04;;;;;;;57.45;39.55;;;10.60;99.90;;;;;;5117083;27;20047;-76
2021/12/26 10:39:39;;;;;;;66.55;44.50;;;10.40;99.90;;;;;;5111854;27;20501;-77
2021/12/26 10:42:10;;;;;;;65.22;43.38;;;10.50;99.90;;;;;;5104920;28;20101;-77
2021/12/26 10:44:41;;;;;;;66.78;46.08;;;10.60;99.90;;;;;;5115746;27;20092;-79
2021/12/26 10:47:12;;;;;;;77.60;50.42;;;10.70;10.10;;;;;;5136267;27;20235;-78
2021/12/26 10:49:58;;;;;;;65.75;44.17;;;10.60;1.00;;;;;;5136057;27;20043;-78
2021/12/26 10:52:30;;;;;;;62.08;41.85;;;10.40;1.00;;;;;;5136685;27;20505;-78
2021/12/26 10:55:01;;;;;;;73.57;49.70;;;10.30;1.00;;;;;;5138173;27;20074;-79
2021/12/26 10:57:32;;;;;;;79.18;53.35;;;10.10;99.90;;;;;;5119336;27;20129;-79
2021/12/26 11:00:09;;;;;;;72.80;48.72;;;9.90;1.00;;;;;;5138482;27;20077;-79
2021/12/26 11:02:40;;;;;;;71.07;46.72;;;9.90;99.90;;;;;;5120577;27;20134;-79
2021/12/26 11:05:10;;;;;;;65.70;40.97;;;10.00;99.90;;;;;;5139263;27;20096;-78
2021/12/26 11:07:49;;;;;;;58.60;39.05;;;9.90;99.90;;;;;;5140039;27;20078;-78
2021/12/26 11:10:24;;;;;;;47.03;32.67;;;9.80;99.90;;;;;;5140741;27;20050;-80
2021/12/26 11:12:55;;;;;;;43.72;30.73;;;9.70;99.90;;;;;;5120069;27;20079;-78
2021/12/26 11:15:24;;;;;;;45.20;31.35;;;9.50;99.90;;;;;;5125881;27;20088;-79
2021/12/26 11:17:55;;;;;;;44.75;30.90;;;9.30;99.90;;;;;;5152047;27;20054;-79
2021/12/26 11:20:35;;;;;;;51.67;34.08;;;9.20;99.90;;;;;;5138216;27;20054;-79
2021/12/26 11:23:09;;;;;;;51.03;33.83;;;9.10;1.00;;;;;;5138370;27;20043;-78
2021/12/26 11:25:40;;;;;;;53.55;35.42;;;9.10;99.90;;;;;;5137679;27;20072;-78
2021/12/26 11:28:08;;;;;;;50.80;33.63;;;8.80;1.00;;;;;;5137056;27;20064;-77
2021/12/26 11:30:36;;;;;;;52.53;35.47;;;8.50;99.90;;;;;;5138872;27;20088;-78
2021/12/26 11:33:05;;;;;;;51.70;33.15;;;8.50;99.90;;;;;;5141909;27;20114;-80
2021/12/26 11:35:33;;;;;;;50.88;34.20;;;8.50;1.00;;;;;;5123287;27;20043;-77
2021/12/26 11:38:02;;;;;;;49.92;34.25;;;8.60;99.90;;;;;;5140208;27;20047;-77
2021/12/26 11:40:50;;;;;;;49.03;33.20;;;8.60;99.90;;;;;;5138271;27;20054;-77
2021/12/26 11:44:02;;;;;;;45.35;31.45;;;8.70;99.90;;;;;;5140140;27;20054;-79
2021/12/26 11:47:10;;;;;;;48.67;32.53;;;8.80;1.00;;;;;;5138075;27;20054;-78
2021/12/26 11:50:20;;;;;;;52.08;33.47;;;9.00;99.90;;;;;;5140041;27;20509;-78
2021/12/26 11:53:23;;;;;;;;;;;8.90;1.00;;;;;;5138444;27;20053;-79
2021/12/26 11:56:18;;;;;;;54.17;34.95;;;8.80;1.00;;;;;;5120589;28;19919;-80
2021/12/26 11:59:27;;;;;;;53.78;34.05;;;8.80;1.00;;;;;;5138554;27;20043;-78
2021/12/26 12:01:55;;;;;;;43.15;29.33;;;8.60;1.00;;;;;;5108005;27;20455;-79
2021/12/26 12:04:25;;;;;;;45.42;31.45;;;8.50;1.00;;;;;;5117942;28;20497;-76
2021/12/26 12:06:54;;;;;;;52.60;35.28;;;8.40;1.00;;;;;;5135379;27;20064;-78
2021/12/26 12:09:29;;;;;;;48.03;32.58;;;8.20;1.00;;;;;;5136398;27;20043;-79
2021/12/26 12:12:10;;;;;;;54.88;34.30;;;8.10;1.00;;;;;;5136716;27;20447;-78
2021/12/26 12:14:53;;;;;;;42.70;28.45;;;8.00;1.00;;;;;;5136081;27;20394;-77
2021/12/26 12:17:24;;;;;;;44.17;29.67;;;7.90;1.00;;;;;;5136790;28;20058;-78
2021/12/26 12:20:14;;;;;;;52.95;34.13;;;7.80;1.00;;;;;;5118330;28;20079;-78
2021/12/26 12:23:17;;;;;;;55.92;36.38;;;7.70;1.00;;;;;;5137601;28;20043;-77
2021/12/26 12:25:52;;;;;;;45.30;30.73;;;7.60;1.00;;;;;;5136916;28;20114;-76
2021/12/26 12:28:33;;;;;;;47.97;32.22;;;7.60;1.00;;;;;;5117810;28;20051;-78
2021/12/26 12:31:20;;;;;;;49.83;32.20;;;7.60;1.00;;;;;;5136683;28;20051;-77
2021/12/26 12:34:02;;;;;;;47.17;30.80;;;7.70;1.00;;;;;;5117729;28;20105;-77
2021/12/26 12:36:32;;;;;;;47.67;30.90;;;7.60;1.00;;;;;;5119213;28;20047;-77
2021/12/26 12:39:13;;;;;;;47.88;31.88;;;7.50;1.00;;;;;;5118202;27;20070;-78
2021/12/26 12:41:42;;;;;;;59.53;36.20;;;7.40;7.70;;;;;;5122188;27;20088;-77
2021/12/26 12:44:31;;;;;;;56.22;35.13;;;7.30;72.70;;;;;;5122063;27;20070;-77
2021/12/26 12:47:02;;;;;;;58.00;35.92;;;7.20;61.40;;;;;;5122116;27;20068;-77
2021/12/26 12:49:48;;;;;;;56.45;36.92;;;7.10;99.90;;;;;;5122224;27;20058;-78
2021/12/26 12:52:35;;;;;;;;;;;7.00;99.90;;;;;;5124173;27;20043;-77
2021/12/26 12:55:03;;;;;;;58.72;35.75;;;6.80;99.90;;;;;;5123114;27;19988;-78
2021/12/26 12:57:36;;;;;;;62.50;38.60;;;6.70;99.90;;;;;;5122457;27;20049;-79
2021/12/26 13:00:07;;;;;;;63.30;39.45;;;6.50;1.00;;;;;;5142216;27;20115;-78
2021/12/26 13:02:37;;;;;;;71.00;41.80;;;6.40;1.00;;;;;;5114918;28;20499;-78
2021/12/26 13:05:06;;;;;;;67.93;41.20;;;6.40;1.00;;;;;;5107122;27;20068;-78
2021/12/26 13:07:33;;;;;;;65.13;41.60;;;6.40;1.00;;;;;;5137678;27;20047;-79
2021/12/26 13:10:10;;;;;;;60.30;39.42;;;6.40;99.90;;;;;;5119100;28;20154;-80